Time;durP1;ratioP1;P1;durP2;ratioP2;P2;SDS_P1;SDS_P2;PMS_P1;PMS_P2;Temp;Humidity;BMP_temperature;BMP_pressure;BME280_temperature;BME280_humidity;BME280_pressure;Samples;Min_cycle;Max_cycle;Signal;HPM_P1;HPM_P2
2023/08/20 00:00:45;;;;;;;11.65;9.93;;;;;;;27.47;76.66;101063.50;4917790;29;20063;-72
2023/08/20 00:03:16;;;;;;;10.88;9.60;;;;;;;27.51;76.13;101071.97;4917282;29;20054;-72
2023/08/20 00:05:44;;;;;;;13.77;9.10;;;;;;;27.51;76.13;101069.16;4917380;29;20067;-71
2023/08/20 00:08:12;;;;;;;12.45;9.55;;;;;;;27.35;77.05;101061.78;4917168;29;20056;-72
2023/08/20 00:10:40;;;;;;;11.98;9.35;;;;;;;27.38;76.73;101060.22;4917311;29;20064;-71
2023/08/20 00:13:08;;;;;;;11.52;8.95;;;;;;;27.36;76.71;101060.59;4917726;29;20056;-72
2023/08/20 00:15:36;;;;;;;13.25;8.45;;;;;;;27.27;77.26;101057.25;4917002;29;20048;-70
2023/08/20 00:18:05;;;;;;;15.32;9.98;;;;;;;27.34;77.04;101056.53;4917495;29;20059;-71
2023/08/20 00:20:33;;;;;;;11.27;9.57;;;;;;;27.32;76.51;101054.09;4917696;29;20067;-72
2023/08/20 00:23:02;;;;;;;10.65;9.20;;;;;;;27.25;76.90;101059.66;4917398;29;20056;-72
2023/08/20 00:25:30;;;;;;;13.13;9.35;;;;;;;27.27;77.22;101051.63;4916940;29;20055;-71
2023/08/20 00:27:58;;;;;;;13.10;9.90;;;;;;;27.21;77.78;101042.75;4917235;29;20052;-72
2023/08/20 00:30:26;;;;;;;11.85;9.35;;;;;;;27.17;78.83;101052.34;4912028;29;20063;-71
2023/08/20 00:32:54;;;;;;;12.15;9.55;;;;;;;27.13;78.29;101051.50;4898251;29;20505;-71
2023/08/20 00:35:22;;;;;;;13.00;9.65;;;;;;;27.06;79.08;101057.81;4898160;29;20060;-71
2023/08/20 00:37:50;;;;;;;11.93;9.80;;;;;;;26.99;79.64;101046.50;4896770;29;20049;-71
2023/08/20 00:40:18;;;;;;;13.93;10.10;;;;;;;27.06;79.38;101050.22;4897957;29;20056;-71
2023/08/20 00:42:46;;;;;;;13.02;9.88;;;;;;;26.98;79.60;101050.50;4898094;29;20070;-71
2023/08/20 00:45:16;;;;;;;12.43;9.68;;;;;;;26.98;79.94;101050.50;4896863;29;20048;-71
2023/08/20 00:47:44;;;;;;;12.52;9.43;;;;;;;26.97;79.61;101055.31;4898303;29;20056;-71
2023/08/20 00:50:12;;;;;;;9.82;8.82;;;;;;;26.90;79.92;101049.56;4896211;29;20053;-71
2023/08/20 00:52:40;;;;;;;12.80;10.07;;;;;;;26.85;80.03;101050.72;4897483;29;20060;-71
2023/08/20 00:55:10;;;;;;;16.48;9.48;;;;;;;26.89;79.00;101056.38;4897861;29;20059;-71
2023/08/20 00:57:38;;;;;;;11.40;9.23;;;;;;;26.93;78.83;101054.47;4896686;29;20053;-71
2023/08/20 01:00:11;;;;;;;12.02;8.90;;;;;;;26.87;78.91;101058.78;4896268;29;20060;-71
2023/08/20 01:02:40;;;;;;;12.68;9.20;;;;;;;26.78;79.92;101053.44;4898337;29;20060;-71
2023/08/20 01:05:11;;;;;;;11.35;9.30;;;;;;;26.81;80.70;101059.13;4896373;29;20396;-72
2023/08/20 01:08:10;;;;;;;11.38;9.15;;;;;;;26.80;80.49;101060.31;4897773;29;20052;-72
2023/08/20 01:11:07;;;;;;;12.10;9.68;;;;;;;26.70;80.39;101063.78;4896214;29;20057;-71
2023/08/20 01:13:35;;;;;;;13.30;10.20;;;;;;;26.66;80.80;101063.72;4896141;29;20056;-72
2023/08/20 01:16:03;;;;;;;11.77;9.55;;;;;;;26.74;80.75;101061.00;4897756;29;20711;-72
2023/08/20 01:18:32;;;;;;;11.75;9.88;;;;;;;26.73;80.48;101062.19;4897562;29;20377;-72
2023/08/20 01:21:06;;;;;;;12.18;9.75;;;;;;;26.60;80.87;101059.63;4895549;29;20405;-72
2023/08/20 01:23:48;;;;;;;11.02;9.73;;;;;;;26.54;81.03;101067.56;4898085;29;20507;-71
2023/08/20 01:26:46;;;;;;;15.10;10.35;;;;;;;26.51;81.97;101062.72;4897836;29;20063;-72
2023/08/20 01:29:14;;;;;;;11.77;10.02;;;;;;;26.54;81.93;101073.16;4897410;29;20048;-71
2023/08/20 01:31:44;;;;;;;15.60;10.15;;;;;;;26.50;82.82;101071.50;4927267;29;20056;-71
2023/08/20 01:34:13;;;;;;;13.38;10.57;;;;;;;26.45;82.41;101078.25;4897273;29;20531;-71
2023/08/20 01:36:41;;;;;;;11.40;9.45;;;;;;;26.33;83.57;101068.03;4927466;29;20060;-72
2023/08/20 01:39:11;;;;;;;14.27;10.90;;;;;;;26.35;83.54;101068.50;4897553;29;20053;-72
2023/08/20 01:41:39;;;;;;;13.15;10.60;;;;;;;26.32;82.75;101076.84;4897158;29;20061;-71
2023/08/20 01:44:07;;;;;;;13.40;10.77;;;;;;;26.32;83.15;101066.44;4897867;29;20064;-72
2023/08/20 01:46:35;;;;;;;13.63;10.70;;;;;;;26.32;83.32;101062.81;4927030;29;20412;-71
2023/08/20 01:49:03;;;;;;;14.20;10.68;;;;;;;26.33;83.16;101067.25;4897121;29;20400;-71
2023/08/20 01:51:31;;;;;;;13.43;9.85;;;;;;;26.37;83.18;101062.50;4897334;29;20072;-71
2023/08/20 01:53:59;;;;;;;13.43;10.68;;;;;;;26.31;84.13;101073.22;4895593;29;20061;-71
2023/08/20 01:56:27;;;;;;;11.90;10.48;;;;;;;26.29;84.57;101061.56;4897565;29;20060;-71
2023/08/20 01:58:55;;;;;;;12.55;10.27;;;;;;;26.28;84.24;101068.38;4926986;29;20057;-71
2023/08/20 02:01:23;;;;;;;12.85;10.68;;;;;;;26.33;84.16;101068.03;4927413;29;20494;-72
2023/08/20 02:03:51;;;;;;;13.55;10.68;;;;;;;26.32;84.39;101065.59;4897465;29;20060;-71
2023/08/20 02:06:19;;;;;;;12.57;10.20;;;;;;;26.20;84.73;101070.22;4927149;29;20049;-72
2023/08/20 02:08:47;;;;;;;18.17;11.05;;;;;;;26.14;84.60;101077.31;4895686;29;20423;-72
2023/08/20 02:11:15;;;;;;;14.32;10.50;;;;;;;26.13;85.21;101078.50;4896891;29;20056;-72
2023/08/20 02:13:45;;;;;;;15.82;11.70;;;;;;;26.14;84.83;101068.91;4896929;29;20049;-72
2023/08/20 02:16:13;;;;;;;14.23;10.35;;;;;;;26.19;84.77;101063.00;4896858;29;20051;-71
2023/08/20 02:18:41;;;;;;;13.52;10.88;;;;;;;26.22;84.16;101070.66;4897148;29;20048;-71
2023/08/20 02:21:09;;;;;;;15.18;11.30;;;;;;;26.15;85.06;101065.75;4895693;29;20523;-71
2023/08/20 02:23:37;;;;;;;14.15;11.05;;;;;;;26.12;84.52;101071.28;4896834;29;20053;-71
2023/08/20 02:26:07;;;;;;;11.88;10.45;;;;;;;26.13;84.68;101064.50;4896759;29;20057;-71
2023/08/20 02:28:35;;;;;;;16.13;11.13;;;;;;;26.11;85.44;101066.88;4896841;29;20048;-71
2023/08/20 02:31:06;;;;;;;18.35;11.32;;;;;;;26.07;85.41;101060.38;4897243;29;20409;-71
2023/08/20 02:33:34;;;;;;;14.05;11.07;;;;;;;26.13;85.33;101067.28;4930433;29;20049;-71
2023/08/20 02:36:03;;;;;;;14.48;10.77;;;;;;;26.13;84.58;101064.50;4900310;29;20055;-71
2023/08/20 02:38:32;;;;;;;13.57;11.27;;;;;;;26.14;85.04;101068.91;4900497;29;20511;-71
2023/08/20 02:41:02;;;;;;;13.63;11.43;;;;;;;26.13;84.57;101076.53;4900655;29;20052;-71
2023/08/20 02:43:30;;;;;;;14.48;11.75;;;;;;;26.08;86.26;101067.59;4900675;29;20056;-71
2023/08/20 02:46:02;;;;;;;15.48;10.98;;;;;;;26.03;85.11;101066.75;4900132;29;20060;-71
2023/08/20 02:48:30;;;;;;;13.60;10.70;;;;;;;26.00;85.46;101073.09;4900465;29;20052;-71
2023/08/20 02:50:58;;;;;;;15.20;11.30;;;;;;;26.03;84.79;101074.34;4900133;29;20064;-71
2023/08/20 02:53:26;;;;;;;15.40;11.40;;;;;;;26.01;85.25;101071.13;4898974;29;20056;-71
2023/08/20 02:55:54;;;;;;;13.93;11.32;;;;;;;25.98;85.28;101072.69;4900576;29;20412;-71
2023/08/20 02:58:22;;;;;;;15.05;10.60;;;;;;;26.02;85.48;101076.38;4930310;29;20052;-71
2023/08/20 03:00:50;;;;;;;15.70;11.25;;;;;;;25.95;85.74;101083.84;4900777;29;20057;-71
2023/08/20 03:03:18;;;;;;;15.02;11.75;;;;;;;25.94;85.48;101083.03;4898686;29;20056;-72
2023/08/20 03:05:46;;;;;;;18.25;11.23;;;;;;;25.97;85.83;101082.28;4929939;29;20067;-71
2023/08/20 03:08:14;;;;;;;15.57;11.02;;;;;;;25.92;85.69;101076.97;4900076;29;20064;-71
2023/08/20 03:10:42;;;;;;;13.27;10.02;;;;;;;25.94;86.30;101071.81;4929943;29;20424;-71
2023/08/20 03:13:11;;;;;;;15.75;11.38;;;;;;;25.81;86.70;101087.19;4899782;29;20041;-71
2023/08/20 03:15:39;;;;;;;14.85;11.68;;;;;;;25.75;86.65;101079.09;4899656;29;20063;-71
2023/08/20 03:18:07;;;;;;;13.65;11.32;;;;;;;25.82;86.96;101075.63;4899802;29;20048;-71
2023/08/20 03:20:35;;;;;;;16.52;11.60;;;;;;;25.77;87.01;101076.72;4929449;29;20049;-72
2023/08/20 03:23:03;;;;;;;16.02;11.18;;;;;;;25.72;87.24;101077.03;4899802;29;20064;-71
2023/08/20 03:25:31;;;;;;;12.95;10.55;;;;;;;25.71;88.15;101078.22;4929553;29;20049;-71
2023/08/20 03:27:59;;;;;;;13.63;10.90;;;;;;;25.70;87.59;101082.19;4899972;29;20060;-71
2023/08/20 03:30:27;;;;;;;13.27;10.95;;;;;;;25.76;86.49;101080.72;4928831;29;20049;-69
2023/08/20 03:32:55;;;;;;;13.75;11.23;;;;;;;25.82;86.58;101083.22;4897727;29;20416;-71
2023/08/20 03:35:24;;;;;;;15.30;11.45;;;;;;;25.73;86.64;101080.66;4906710;29;20060;-71
2023/08/20 03:37:53;;;;;;;13.05;10.50;;;;;;;25.74;86.31;101085.88;4928922;29;20500;-71
2023/08/20 03:40:21;;;;;;;15.23;10.85;;;;;;;25.73;87.32;101080.66;4910491;29;20067;-70
2023/08/20 03:42:48;;;;;;;13.85;11.30;;;;;;;25.71;87.16;101080.22;4897579;29;20460;-71
2023/08/20 03:45:17;;;;;;;14.77;10.25;;;;;;;25.67;87.31;101085.75;4896978;29;20130;-71
2023/08/20 03:47:46;;;;;;;15.23;11.05;;;;;;;25.58;86.93;101086.00;4898818;29;20060;-72
2023/08/20 03:50:17;;;;;;;14.88;11.27;;;;;;;25.53;87.96;101088.25;4928986;29;20053;-72
2023/08/20 03:52:45;;;;;;;13.57;11.07;;;;;;;25.50;87.31;101079.41;4897472;29;20072;-71
2023/08/20 03:55:13;;;;;;;15.23;11.90;;;;;;;25.56;87.74;101073.53;4896965;29;20059;-71
2023/08/20 03:57:41;;;;;;;13.73;10.98;;;;;;;25.54;88.00;101073.91;4899021;29;20064;-71
2023/08/20 04:00:12;;;;;;;13.35;10.52;;;;;;;25.53;88.47;101071.44;4899326;29;20057;-71
2023/08/20 04:02:43;;;;;;;13.45;11.02;;;;;;;25.55;88.52;101081.13;4899075;29;20040;-71
2023/08/20 04:05:11;;;;;;;19.33;11.30;;;;;;;25.60;90.10;101077.19;4899412;29;20052;-72
2023/08/20 04:07:39;;;;;;;14.88;12.10;;;;;;;25.51;94.08;101085.81;4897682;29;20484;-72
2023/08/20 04:10:09;;;;;;;17.52;11.98;;;;;;;25.38;94.05;101079.59;4898670;29;20052;-72
2023/08/20 04:12:37;;;;;;;22.38;12.48;;;;;;;25.17;94.36;101083.56;4898688;29;20045;-72
2023/08/20 04:15:05;;;;;;;16.70;12.77;;;;;;;25.08;95.56;101085.78;4928389;29;20049;-72
2023/08/20 04:17:34;;;;;;;18.55;12.18;;;;;;;25.02;96.03;101084.47;4898692;29;20049;-72
2023/08/20 04:20:05;;;;;;;16.80;12.18;;;;;;;24.90;96.36;101086.22;4899135;29;20048;-72
2023/08/20 04:22:33;;;;;;;18.30;12.45;;;;;;;24.95;92.78;101080.34;4928573;29;20053;-72
2023/08/20 04:25:01;;;;;;;16.65;12.05;;;;;;;25.05;93.03;101084.53;4898639;29;20072;-72
2023/08/20 04:27:33;;;;;;;15.88;11.60;;;;;;;25.18;92.67;101087.97;4915709;29;20063;-72
2023/08/20 04:30:02;;;;;;;14.57;12.15;;;;;;;25.23;94.84;101092.50;4916295;29;20052;-72
2023/08/20 04:32:30;;;;;;;17.25;12.23;;;;;;;25.31;92.67;101093.44;4917156;29;20067;-72
2023/08/20 04:34:59;;;;;;;14.95;11.85;;;;;;;25.36;92.88;101101.53;4915995;29;20051;-72
2023/08/20 04:37:27;;;;;;;14.60;11.23;;;;;;;25.44;91.13;101096.88;4916257;29;20059;-71
2023/08/20 04:39:57;;;;;;;15.75;11.60;;;;;;;25.47;90.20;101096.94;4915889;29;20056;-72
2023/08/20 04:42:25;;;;;;;14.18;10.77;;;;;;;25.49;90.24;101100.22;4915884;29;20528;-72
2023/08/20 04:44:53;;;;;;;14.70;11.73;;;;;;;25.56;90.94;101093.94;4915917;29;20040;-72
2023/08/20 04:47:22;;;;;;;14.88;11.80;;;;;;;25.50;90.13;101112.22;4900373;29;20408;-72
2023/08/20 04:49:50;;;;;;;16.33;11.75;;;;;;;25.53;90.12;101110.66;4915689;29;20044;-72
2023/08/20 04:52:20;;;;;;;13.93;11.30;;;;;;;25.52;90.88;101114.66;4917090;29;20067;-72
2023/08/20 04:54:48;;;;;;;15.38;10.90;;;;;;;25.58;90.37;101111.22;4915786;29;20357;-72
2023/08/20 04:57:18;;;;;;;13.75;10.98;;;;;;;25.68;89.66;101118.22;4915929;29;20471;-72
2023/08/20 04:59:47;;;;;;;15.13;11.13;;;;;;;25.78;87.52;101111.19;4917116;29;20052;-72
2023/08/20 05:02:15;;;;;;;13.80;10.77;;;;;;;25.82;90.48;101123.28;4916634;29;20059;-72
2023/08/20 05:04:52;;;;;;;15.00;11.52;;;;;;;25.90;88.78;101127.00;4915780;29;20048;-72
2023/08/20 05:07:20;;;;;;;17.80;10.95;;;;;;;26.02;90.18;101121.22;4917197;29;20064;-72
2023/08/20 05:09:49;;;;;;;13.88;11.30;;;;;;;26.16;87.84;101125.44;4915762;29;20059;-72
2023/08/20 05:12:17;;;;;;;14.57;11.35;;;;;;;26.24;84.98;101130.03;4916435;29;20060;-73
2023/08/20 05:14:45;;;;;;;13.98;10.73;;;;;;;26.28;87.30;101125.28;4916769;29;20052;-73
2023/08/20 05:17:13;;;;;;;14.18;11.18;;;;;;;26.43;85.33;101131.94;4915566;29;20496;-73
2023/08/20 05:19:41;;;;;;;13.10;10.43;;;;;;;26.43;85.43;101131.13;4916406;29;20056;-73
2023/08/20 05:22:11;;;;;;;14.10;11.15;;;;;;;26.46;84.44;101127.56;4915521;29;20056;-73
2023/08/20 05:24:39;;;;;;;16.58;12.02;;;;;;;26.59;84.66;101125.38;4915290;29;20052;-73
2023/08/20 05:27:16;;;;;;;14.13;11.35;;;;;;;26.59;83.19;101124.56;4916336;29;20056;-73
2023/08/20 05:29:47;;;;;;;13.02;10.68;;;;;;;26.64;82.75;101132.66;4915188;29;20048;-73
2023/08/20 05:32:16;;;;;;;13.98;10.73;;;;;;;26.76;83.90;101138.03;4915647;29;20052;-72
2023/08/20 05:34:44;;;;;;;14.35;11.45;;;;;;;26.74;85.23;101131.19;4915385;29;20087;-73
2023/08/20 05:37:12;;;;;;;15.30;11.27;;;;;;;27.04;83.63;101134.06;4916204;29;20052;-73
2023/08/20 05:39:43;;;;;;;13.38;10.10;;;;;;;27.19;78.08;101146.28;4915041;29;20063;-71
2023/08/20 05:42:11;;;;;;;13.60;9.20;;;;;;;27.33;76.76;101147.66;4915424;29;20052;-72
2023/08/20 05:44:43;;;;;;;10.52;8.38;;;;;;;27.13;72.47;101141.38;4946612;29;20052;-73
2023/08/20 05:47:15;;;;;;;11.70;8.18;;;;;;;27.27;76.34;101140.75;4945979;29;20059;-72
2023/08/20 05:49:43;;;;;;;9.82;8.32;;;;;;;27.43;73.31;101143.34;4946608;29;20059;-72
2023/08/20 05:52:11;;;;;;;16.02;10.70;;;;;;;27.36;78.72;101139.25;4915914;29;20508;-72
2023/08/20 05:54:41;;;;;;;13.35;11.02;;;;;;;27.31;78.75;101142.41;4914860;29;20040;-73
2023/08/20 05:57:10;;;;;;;13.95;10.15;;;;;;;27.34;79.58;101141.66;4915537;29;20403;-72
2023/08/20 05:59:38;;;;;;;15.43;10.85;;;;;;;27.62;80.91;101142.41;4914916;29;20048;-73
2023/08/20 06:02:06;;;;;;;13.98;10.55;;;;;;;27.79;80.36;101142.94;4914993;29;20059;-73
2023/08/20 06:04:35;;;;;;;14.02;10.75;;;;;;;27.81;79.66;101149.03;4916110;29;20063;-72
2023/08/20 06:07:03;;;;;;;12.60;9.98;;;;;;;27.70;76.32;101152.50;4918189;29;20052;-73
2023/08/20 06:09:31;;;;;;;15.93;10.60;;;;;;;27.89;77.83;101153.50;4919901;29;20063;-71
2023/08/20 06:12:00;;;;;;;17.48;10.68;;;;;;;28.06;78.61;101160.53;4919974;29;20056;-73
2023/08/20 06:14:28;;;;;;;14.43;11.07;;;;;;;28.27;75.21;101150.66;4920314;29;20063;-74
2023/08/20 06:16:56;;;;;;;11.93;9.43;;;;;;;28.74;73.60;101150.22;4920101;29;20056;-73
2023/08/20 06:19:25;;;;;;;12.98;9.73;;;;;;;28.75;71.32;101154.63;4920453;29;20056;-72
2023/08/20 06:21:54;;;;;;;10.88;9.48;;;;;;;29.13;69.90;101160.94;4920921;29;20052;-73
2023/08/20 06:24:22;;;;;;;11.55;9.18;;;;;;;29.28;69.02;101158.16;4920059;29;20060;-72
2023/08/20 06:26:51;;;;;;;12.25;10.00;;;;;;;29.45;69.65;101160.25;4919964;29;20078;-72
2023/08/20 06:29:21;;;;;;;12.20;9.30;;;;;;;29.53;68.43;101161.13;4920422;29;20067;-73
2023/08/20 06:31:50;;;;;;;12.85;10.00;;;;;;;29.56;68.58;101162.34;4920214;29;20051;-73
2023/08/20 06:34:19;;;;;;;13.30;9.75;;;;;;;29.68;68.09;101155.50;4920489;29;20060;-73
2023/08/20 06:36:48;;;;;;;12.30;9.77;;;;;;;29.74;68.54;101168.81;4920472;29;20079;-72
2023/08/20 06:39:16;;;;;;;11.70;9.50;;;;;;;29.59;69.14;101158.72;4919786;29;20048;-72
2023/08/20 06:41:44;;;;;;;13.20;10.15;;;;;;;29.72;69.32;101162.75;4919199;29;20481;-72
2023/08/20 06:44:20;;;;;;;11.45;10.23;;;;;;;30.02;69.00;101164.41;4919366;29;20056;-72
2023/08/20 06:46:48;;;;;;;14.13;10.50;;;;;;;30.02;68.34;101161.59;4919109;29;20435;-72
2023/08/20 06:49:17;;;;;;;13.73;10.52;;;;;;;30.17;68.41;101170.13;4919026;29;20056;-72
2023/08/20 06:51:45;;;;;;;12.45;10.48;;;;;;;30.09;67.87;101168.50;4919143;29;20071;-71
2023/08/20 06:54:15;;;;;;;12.45;10.43;;;;;;;29.85;68.84;101171.66;4918925;29;20399;-72
2023/08/20 06:56:44;;;;;;;12.93;9.90;;;;;;;30.20;68.01;101169.31;4918989;29;20063;-71
2023/08/20 06:59:14;;;;;;;11.77;9.55;;;;;;;30.60;66.72;101174.16;4917829;29;20071;-72
2023/08/20 07:01:42;;;;;;;11.23;9.80;;;;;;;30.55;66.10;101173.34;4919012;29;20044;-72
2023/08/20 07:04:12;;;;;;;14.73;11.32;;;;;;;30.77;66.19;101169.69;4917948;29;20060;-72
2023/08/20 07:06:41;;;;;;;15.95;10.07;;;;;;;30.82;66.25;101172.94;4919110;29;20066;-72
2023/08/20 07:09:10;;;;;;;16.67;10.05;;;;;;;30.94;65.12;101168.06;4918885;29;20408;-72
2023/08/20 07:11:38;;;;;;;16.38;9.77;;;;;;;31.20;64.02;101177.25;4918967;29;20048;-72
2023/08/20 07:14:06;;;;;;;12.05;10.00;;;;;;;31.45;62.37;101177.19;4918748;29;20074;-72
2023/08/20 07:16:35;;;;;;;13.20;9.82;;;;;;;31.47;60.04;101179.59;4917397;29;20056;-72
2023/08/20 07:19:03;;;;;;;14.02;10.23;;;;;;;31.42;61.78;101177.19;4917711;29;20391;-73
2023/08/20 07:21:31;;;;;;;12.32;9.63;;;;;;;31.49;61.28;101177.16;4918758;29;20067;-73
2023/08/20 07:24:00;;;;;;;11.20;8.52;;;;;;;31.57;60.72;101178.72;4918933;29;20660;-73
2023/08/20 07:26:29;;;;;;;10.80;8.85;;;;;;;31.58;58.92;101176.72;4917721;29;20059;-73
2023/08/20 07:28:58;;;;;;;11.15;8.70;;;;;;;31.81;59.13;101178.22;4918621;29;20052;-73
2023/08/20 07:31:31;;;;;;;10.02;8.65;;;;;;;32.07;56.87;101179.69;4919019;29;20059;-73
2023/08/20 07:34:02;;;;;;;10.05;7.93;;;;;;;31.98;56.85;101184.97;4919050;29;20052;-72
2023/08/20 07:36:33;;;;;;;11.32;8.65;;;;;;;32.23;58.00;101181.16;4918783;29;20056;-73
2023/08/20 07:39:02;;;;;;;11.65;7.47;;;;;;;32.04;57.06;101184.13;4918988;29;20060;-73
2023/08/20 07:41:31;;;;;;;12.73;8.75;;;;;;;32.34;57.89;101178.25;4919282;29;20063;-73
2023/08/20 07:43:59;;;;;;;10.48;8.50;;;;;;;32.57;55.30;101189.81;4917631;29;20060;-74
2023/08/20 07:46:27;;;;;;;15.32;8.63;;;;;;;32.34;55.73;101193.19;4918838;29;20522;-73
2023/08/20 07:48:56;;;;;;;10.50;7.93;;;;;;;32.38;56.99;101187.50;4918865;29;20048;-73
2023/08/20 07:51:24;;;;;;;8.85;7.97;;;;;;;32.54;56.62;101187.00;4919159;29;20052;-72
2023/08/20 07:53:53;;;;;;;8.25;7.40;;;;;;;33.03;55.13;101189.75;4918368;29;20420;-72
2023/08/20 07:56:21;;;;;;;9.95;7.70;;;;;;;32.92;53.63;101186.19;4918054;29;20044;-73
2023/08/20 07:58:49;;;;;;;12.75;8.32;;;;;;;32.55;53.93;101182.94;4917764;29;20044;-73
2023/08/20 08:01:18;;;;;;;9.32;8.18;;;;;;;32.64;55.70;101185.28;4917642;29;20060;-73
2023/08/20 08:03:46;;;;;;;7.90;7.03;;;;;;;32.48;52.50;101185.81;4917930;29;20378;-73
2023/08/20 08:06:16;;;;;;;11.38;6.65;;;;;;;32.85;52.54;101189.94;4917587;29;20048;-73
2023/08/20 08:08:45;;;;;;;8.02;7.22;;;;;;;33.05;52.63;101184.47;4917697;29;20060;-73
2023/08/20 08:11:13;;;;;;;8.25;7.45;;;;;;;33.10;52.42;101189.66;4917699;29;20067;-73
2023/08/20 08:13:41;;;;;;;9.13;7.55;;;;;;;33.02;51.90;101188.16;4916647;29;20056;-73
2023/08/20 08:16:10;;;;;;;11.77;7.20;;;;;;;32.90;52.10;101186.66;4918208;29;20052;-73
2023/08/20 08:18:38;;;;;;;8.77;6.28;;;;;;;32.96;50.42;101184.16;4917615;29;20044;-73
2023/08/20 08:21:07;;;;;;;7.90;6.13;;;;;;;33.23;50.73;101167.25;4917540;29;20055;-72
2023/08/20 08:23:35;;;;;;;6.72;5.78;;;;;;;33.61;51.31;101179.75;4917671;29;20048;-72
2023/08/20 08:26:03;;;;;;;7.95;6.82;;;;;;;33.66;49.00;101176.44;4918180;29;20064;-73
2023/08/20 08:28:32;;;;;;;7.10;6.40;;;;;;;33.63;50.15;101183.75;4918347;29;20056;-74
2023/08/20 08:31:00;;;;;;;8.27;6.68;;;;;;;33.45;47.84;101178.31;4917250;29;20059;-72
2023/08/20 08:33:29;;;;;;;7.47;6.50;;;;;;;33.71;47.74;101181.63;4917586;29;20052;-73
2023/08/20 08:35:57;;;;;;;7.35;5.97;;;;;;;33.98;48.11;101168.66;4918181;29;20060;-71
2023/08/20 08:38:26;;;;;;;6.95;5.55;;;;;;;33.93;47.89;101169.97;4918357;29;20062;-70
2023/08/20 08:40:55;;;;;;;8.82;6.90;;;;;;;34.13;47.86;101177.78;4917860;29;20129;-70
2023/08/20 08:43:24;;;;;;;7.45;6.63;;;;;;;34.16;48.33;101174.88;4918338;29;20056;-74
2023/08/20 08:45:56;;;;;;;7.38;6.68;;;;;;;34.00;48.35;101171.88;4916503;29;20059;-71
2023/08/20 08:48:26;;;;;;;7.18;6.47;;;;;;;34.48;47.26;101175.56;4918295;29;20494;-71
2023/08/20 08:50:55;;;;;;;9.50;6.88;;;;;;;34.47;46.15;101168.28;4917727;29;20063;-71
2023/08/20 08:53:25;;;;;;;8.45;6.50;;;;;;;34.18;46.87;101174.47;4917978;29;20055;-72
2023/08/20 08:55:54;;;;;;;6.95;6.22;;;;;;;34.30;47.64;101173.03;4917775;29;20062;-71
2023/08/20 08:58:22;;;;;;;6.30;5.70;;;;;;;34.27;46.56;101174.72;4917760;29;20538;-73
2023/08/20 09:00:51;;;;;;;7.93;6.38;;;;;;;34.64;46.36;101172.06;4917460;29;20056;-73
2023/08/20 09:03:20;;;;;;;6.88;6.07;;;;;;;35.14;45.67;101168.69;4917033;29;20063;-73
2023/08/20 09:05:50;;;;;;;7.72;6.15;;;;;;;35.26;43.39;101170.88;4916641;29;20062;-74
2023/08/20 09:08:23;;;;;;;9.02;6.50;;;;;;;34.46;46.27;101166.69;4916633;29;20408;-72
2023/08/20 09:10:52;;;;;;;8.25;6.40;;;;;;;34.55;45.63;101174.66;4916777;29;20059;-72
2023/08/20 09:13:26;;;;;;;7.75;6.13;;;;;;;35.07;46.63;101163.91;4916979;29;20059;-73
2023/08/20 09:15:54;;;;;;;;;;;;;;;35.17;45.87;101167.81;4916769;29;20056;-70
2023/08/20 09:18:22;;;;;;;8.57;6.40;;;;;;;35.24;46.02;101173.38;4916483;29;19931;-71
2023/08/20 09:20:51;;;;;;;6.90;6.20;;;;;;;34.91;44.24;101173.19;4916157;29;20044;-72
2023/08/20 09:23:19;;;;;;;7.07;5.88;;;;;;;34.94;45.07;101167.41;4916334;29;20060;-72
2023/08/20 09:25:48;;;;;;;6.75;6.05;;;;;;;34.53;43.99;101166.56;4916269;29;20071;-72
2023/08/20 09:28:16;;;;;;;7.90;5.95;;;;;;;34.89;45.99;101169.97;4916473;29;20056;-73
2023/08/20 09:31:01;;;;;;;7.53;5.82;;;;;;;34.97;44.64;101166.56;4916294;29;20059;-71
2023/08/20 09:33:29;;;;;;;6.82;6.13;;;;;;;34.69;44.01;101168.72;4916185;29;20056;-71
2023/08/20 09:35:58;;;;;;;9.43;6.60;;;;;;;35.02;46.50;101170.94;4916059;29;20055;-72
2023/08/20 09:38:27;;;;;;;7.40;6.35;;;;;;;34.88;45.33;101165.53;4916393;29;20056;-72
2023/08/20 09:40:56;;;;;;;7.30;6.60;;;;;;;35.08;46.86;101172.03;4915767;29;20059;-72
2023/08/20 09:43:29;;;;;;;5.72;5.22;;;;;;;35.54;45.92;101165.81;4916893;29;20063;-72
2023/08/20 09:45:59;;;;;;;6.35;5.75;;;;;;;35.64;43.78;101166.81;4915909;29;20063;-73
2023/08/20 09:48:29;;;;;;;6.78;6.15;;;;;;;35.53;43.69;101169.91;4916136;29;20369;-72
2023/08/20 09:51:00;;;;;;;5.95;5.35;;;;;;;35.36;43.80;101172.69;4916291;29;20044;-72
2023/08/20 09:53:44;;;;;;;5.90;5.30;;;;;;;35.45;42.05;101166.41;4916306;29;20048;-72
2023/08/20 09:56:27;;;;;;;6.38;5.78;;;;;;;35.46;43.04;101167.19;4916078;29;20072;-70
2023/08/20 09:58:58;;;;;;;6.65;5.97;;;;;;;35.57;43.13;101167.75;4915525;29;20059;-72
2023/08/20 10:01:27;;;;;;;6.13;5.50;;;;;;;35.72;42.53;101165.41;4916344;29;20056;-73
2023/08/20 10:03:56;;;;;;;6.53;5.63;;;;;;;35.83;41.86;101161.50;4916526;29;20075;-74
2023/08/20 10:06:26;;;;;;;7.43;6.13;;;;;;;35.91;42.85;101166.59;4916685;29;20521;-72
2023/08/20 10:08:54;;;;;;;7.90;6.10;;;;;;;36.18;41.93;101168.41;4915300;29;20052;-73
2023/08/20 10:11:23;;;;;;;6.97;6.15;;;;;;;36.18;42.61;101164.75;4917287;29;20060;-72
2023/08/20 10:13:51;;;;;;;7.18;5.88;;;;;;;36.01;42.23;101161.88;4916736;29;20067;-72
2023/08/20 10:16:22;;;;;;;6.70;6.00;;;;;;;35.64;41.90;101161.91;4915790;29;20060;-71
2023/08/20 10:18:51;;;;;;;7.55;6.22;;;;;;;35.88;43.34;101161.75;4915570;29;20408;-71
2023/08/20 10:21:24;;;;;;;7.00;5.68;;;;;;;35.99;41.96;101160.72;4915771;29;20408;-73
2023/08/20 10:23:53;;;;;;;8.10;5.63;;;;;;;36.01;42.33;101166.78;4915426;29;20404;-72
2023/08/20 10:26:24;;;;;;;9.23;5.97;;;;;;;36.26;43.69;101168.22;4915819;29;20062;-71
2023/08/20 10:29:51;;;;;;;8.18;6.05;;;;;;;35.61;41.64;101162.81;4914002;29;20506;-72
2023/08/20 10:32:19;;;;;;;7.15;6.45;;;;;;;35.72;41.94;101158.94;4859562;29;20508;-73
2023/08/20 10:34:54;;;;;;;7.10;6.35;;;;;;;35.13;44.43;101150.81;4875346;29;20072;-73
2023/08/20 10:37:31;;;;;;;6.70;6.00;;;;;;;35.31;45.75;101146.78;4897226;29;20068;-72
2023/08/20 10:40:00;;;;;;;6.90;6.30;;;;;;;35.24;44.37;101144.91;4915861;29;20071;-72
2023/08/20 10:42:29;;;;;;;7.25;6.55;;;;;;;35.87;42.41;101148.00;4915539;29;20048;-73
2023/08/20 10:45:01;;;;;;;7.40;6.55;;;;;;;36.30;43.52;101146.94;4915450;29;20074;-73
2023/08/20 10:47:42;;;;;;;6.72;6.05;;;;;;;36.18;42.45;101144.81;4915212;29;20074;-73
2023/08/20 10:50:12;;;;;;;8.50;6.30;;;;;;;36.49;43.16;101149.31;4915588;29;20056;-72
2023/08/20 10:52:42;;;;;;;6.90;6.00;;;;;;;35.88;42.76;101141.84;4916574;29;20052;-73
2023/08/20 10:55:10;;;;;;;6.55;5.93;;;;;;;35.97;42.16;101131.88;4918687;29;20070;-72
2023/08/20 10:57:39;;;;;;;6.68;5.57;;;;;;;36.51;41.29;101141.09;4919117;29;20060;-70
2023/08/20 11:00:11;;;;;;;7.78;6.80;;;;;;;36.39;40.75;101136.94;4919227;29;20060;-72
2023/08/20 11:02:41;;;;;;;9.63;6.40;;;;;;;36.58;41.81;101135.22;4919271;29;20052;-72
2023/08/20 11:05:18;;;;;;;6.70;6.07;;;;;;;36.12;41.48;101130.28;4919167;29;20056;-72
2023/08/20 11:07:47;;;;;;;6.78;6.13;;;;;;;35.98;42.33;101140.00;4919177;29;20075;-72
2023/08/20 11:10:17;;;;;;;6.40;5.70;;;;;;;36.69;41.12;101132.88;4919037;29;20059;-72
2023/08/20 11:12:46;;;;;;;7.28;6.28;;;;;;;36.47;40.85;101129.81;4916870;29;20079;-72
2023/08/20 11:15:14;;;;;;;6.80;6.20;;;;;;;36.25;42.39;101118.97;4918253;29;20056;-70
2023/08/20 11:17:45;;;;;;;7.18;6.47;;;;;;;35.99;42.41;101118.00;4914699;29;20048;-82
2023/08/20 11:20:18;;;;;;;6.97;5.70;;;;;;;35.76;42.77;101116.94;4883698;29;20055;-82
2023/08/20 11:22:53;;;;;;;7.30;6.00;;;;;;;35.46;43.69;101107.44;4899139;29;20057;-85
2023/08/20 11:25:21;;;;;;;6.40;5.80;;;;;;;35.36;43.81;101107.25;4899635;29;20063;-84
2023/08/20 11:27:51;;;;;;;8.25;6.60;;;;;;;35.27;44.28;101109.09;4898475;29;20392;-84